sensor_id;sensor_type;location;lat;lon;timestamp;pressure;altitude;pressure_sealevel;temperature;humidity
17764;BME280;22245;52.832;13.816;2022-07-25T00:02:15;101499.84;;;17.86;63.68
17764;BME280;22245;52.832;13.816;2022-07-25T00:05:37;101500.16;;;17.83;63.88
17764;BME280;22245;52.832;13.816;2022-07-25T00:08:59;101506.56;;;17.82;64.03
17764;BME280;22245;52.832;13.816;2022-07-25T00:12:21;101495.97;;;17.81;63.88
17764;BME280;22245;52.832;13.816;2022-07-25T00:15:44;101502.50;;;17.78;64.13
17764;BME280;22245;52.832;13.816;2022-07-25T00:19:05;101495.25;;;17.78;63.79
17764;BME280;22245;52.832;13.816;2022-07-25T00:22:27;101483.78;;;17.76;63.42
17764;BME280;22245;52.832;13.816;2022-07-25T00:25:49;101484.78;;;17.75;63.82
17764;BME280;22245;52.832;13.816;2022-07-25T00:29:10;101477.03;;;17.72;63.89
17764;BME280;22245;52.832;13.816;2022-07-25T00:32:34;101473.84;;;17.69;64.13
17764;BME280;22245;52.832;13.816;2022-07-25T00:35:56;101471.63;;;17.64;64.20
17764;BME280;22245;52.832;13.816;2022-07-25T00:39:18;101470.25;;;17.60;64.21
17764;BME280;22245;52.832;13.816;2022-07-25T00:42:40;101463.31;;;17.57;64.84
17764;BME280;22245;52.832;13.816;2022-07-25T00:46:02;101465.50;;;17.54;64.87
17764;BME280;22245;52.832;13.816;2022-07-25T00:49:25;101458.75;;;17.49;65.17
17764;BME280;22245;52.832;13.816;2022-07-25T00:52:47;101461.06;;;17.44;65.07
17764;BME280;22245;52.832;13.816;2022-07-25T00:56:09;101458.84;;;17.40;65.15
17764;BME280;22245;52.832;13.816;2022-07-25T00:59:30;101464.38;;;17.38;65.11
17764;BME280;22245;52.832;13.816;2022-07-25T01:02:52;101460.19;;;17.35;65.36
17764;BME280;22245;52.832;13.816;2022-07-25T01:06:16;101450.41;;;17.34;65.59
17764;BME280;22245;52.832;13.816;2022-07-25T01:09:38;101452.56;;;17.31;65.62
17764;BME280;22245;52.832;13.816;2022-07-25T01:13:00;101445.97;;;17.25;65.79
17764;BME280;22245;52.832;13.816;2022-07-25T01:16:22;101439.06;;;17.23;65.75
17764;BME280;22245;52.832;13.816;2022-07-25T01:19:44;101438.38;;;17.20;65.71
17764;BME280;22245;52.832;13.816;2022-07-25T01:23:08;101432.28;;;17.18;65.92
17764;BME280;22245;52.832;13.816;2022-07-25T01:26:30;101426.91;;;17.18;65.91
17764;BME280;22245;52.832;13.816;2022-07-25T01:29:51;101425.53;;;17.14;65.80
17764;BME280;22245;52.832;13.816;2022-07-25T01:33:14;101429.56;;;17.10;66.04
17764;BME280;22245;52.832;13.816;2022-07-25T01:36:36;101420.94;;;17.06;66.31
17764;BME280;22245;52.832;13.816;2022-07-25T01:40:00;101422.09;;;17.04;66.21
17764;BME280;22245;52.832;13.816;2022-07-25T01:43:22;101424.09;;;17.02;66.14
17764;BME280;22245;52.832;13.816;2022-07-25T01:46:44;101420.72;;;17.00;65.87
17764;BME280;22245;52.832;13.816;2022-07-25T01:50:07;101418.31;;;16.97;66.13
17764;BME280;22245;52.832;13.816;2022-07-25T01:53:30;101413.25;;;16.93;66.77
17764;BME280;22245;52.832;13.816;2022-07-25T01:56:53;101412.72;;;16.90;66.33
17764;BME280;22245;52.832;13.816;2022-07-25T02:00:15;101417.25;;;16.89;66.29
17764;BME280;22245;52.832;13.816;2022-07-25T02:03:37;101412.19;;;16.86;66.36
17764;BME280;22245;52.832;13.816;2022-07-25T02:06:59;101403.28;;;16.86;66.23
17764;BME280;22245;52.832;13.816;2022-07-25T02:10:21;101390.97;;;16.83;66.15
17764;BME280;22245;52.832;13.816;2022-07-25T02:13:44;101397.19;;;16.84;66.15
17764;BME280;22245;52.832;13.816;2022-07-25T02:17:05;101397.03;;;16.85;66.15
17764;BME280;22245;52.832;13.816;2022-07-25T02:20:27;101394.03;;;16.88;65.94
17764;BME280;22245;52.832;13.816;2022-07-25T02:23:49;101384.47;;;16.86;65.99
17764;BME280;22245;52.832;13.816;2022-07-25T02:27:11;101385.59;;;16.83;65.80
17764;BME280;22245;52.832;13.816;2022-07-25T02:30:34;101380.53;;;16.80;66.05
17764;BME280;22245;52.832;13.816;2022-07-25T02:33:56;101384.38;;;16.77;66.01
17764;BME280;22245;52.832;13.816;2022-07-25T02:37:18;101378.16;;;16.77;66.41
17764;BME280;22245;52.832;13.816;2022-07-25T02:40:40;101374.94;;;16.73;66.52
17764;BME280;22245;52.832;13.816;2022-07-25T02:44:02;101370.03;;;16.69;66.48
17764;BME280;22245;52.832;13.816;2022-07-25T02:47:25;101377.38;;;16.67;66.58
17764;BME280;22245;52.832;13.816;2022-07-25T02:50:48;101369.63;;;16.63;66.81
17764;BME280;22245;52.832;13.816;2022-07-25T02:54:09;101366.44;;;16.60;66.87
17764;BME280;22245;52.832;13.816;2022-07-25T02:57:31;101366.75;;;16.57;66.49
17764;BME280;22245;52.832;13.816;2022-07-25T03:00:53;101361.38;;;16.57;66.75
17764;BME280;22245;52.832;13.816;2022-07-25T03:04:16;101361.50;;;16.55;66.78
17764;BME280;22245;52.832;13.816;2022-07-25T03:07:39;101362.50;;;16.54;66.80
17764;BME280;22245;52.832;13.816;2022-07-25T03:11:02;101365.19;;;16.54;66.74
17764;BME280;22245;52.832;13.816;2022-07-25T03:14:23;101358.13;;;16.53;66.49
17764;BME280;22245;52.832;13.816;2022-07-25T03:17:45;101351.91;;;16.53;66.49
17764;BME280;22245;52.832;13.816;2022-07-25T03:21:09;101340.31;;;16.52;66.28
17764;BME280;22245;52.832;13.816;2022-07-25T03:24:30;101346.53;;;16.53;66.52
17764;BME280;22245;52.832;13.816;2022-07-25T03:27:52;101348.38;;;16.52;66.75
17764;BME280;22245;52.832;13.816;2022-07-25T03:31:14;101340.47;;;16.51;66.60
17764;BME280;22245;52.832;13.816;2022-07-25T03:34:36;101345.00;;;16.50;67.06
17764;BME280;22245;52.832;13.816;2022-07-25T03:37:59;101335.25;;;16.49;66.96
17764;BME280;22245;52.832;13.816;2022-07-25T03:41:21;101328.19;;;16.48;66.33
17764;BME280;22245;52.832;13.816;2022-07-25T03:44:46;101329.88;;;16.49;66.32
17764;BME280;22245;52.832;13.816;2022-07-25T03:48:08;101328.72;;;16.52;66.99
17764;BME280;22245;52.832;13.816;2022-07-25T03:51:30;101322.16;;;16.54;66.34
17764;BME280;22245;52.832;13.816;2022-07-25T03:54:53;101318.16;;;16.58;66.40
17764;BME280;22245;52.832;13.816;2022-07-25T03:58:15;101321.53;;;16.60;65.78
17764;BME280;22245;52.832;13.816;2022-07-25T04:01:37;101324.91;;;16.62;64.77
17764;BME280;22245;52.832;13.816;2022-07-25T04:05:00;101319.41;;;16.64;64.60
17764;BME280;22245;52.832;13.816;2022-07-25T04:08:21;101324.31;;;16.69;65.85
17764;BME280;22245;52.832;13.816;2022-07-25T04:11:44;101318.94;;;16.69;66.04
17764;BME280;22245;52.832;13.816;2022-07-25T04:15:07;101310.56;;;16.72;65.59
17764;BME280;22245;52.832;13.816;2022-07-25T04:18:29;101309.38;;;16.74;66.28
17764;BME280;22245;52.832;13.816;2022-07-25T04:21:53;101307.38;;;16.76;66.18
17764;BME280;22245;52.832;13.816;2022-07-25T04:25:15;101306.22;;;16.79;66.07
17764;BME280;22245;52.832;13.816;2022-07-25T04:28:38;101298.97;;;16.79;65.72
17764;BME280;22245;52.832;13.816;2022-07-25T04:32:00;101296.97;;;16.82;65.22
17764;BME280;22245;52.832;13.816;2022-07-25T04:35:22;101296.66;;;16.85;64.71
17764;BME280;22245;52.832;13.816;2022-07-25T04:38:44;101279.72;;;16.92;64.21
17764;BME280;22245;52.832;13.816;2022-07-25T04:42:06;101279.97;;;16.99;64.08
17764;BME280;22245;52.832;13.816;2022-07-25T04:45:30;101270.25;;;17.06;63.97
17764;BME280;22245;52.832;13.816;2022-07-25T04:48:53;101259.50;;;17.15;63.75
17764;BME280;22245;52.832;13.816;2022-07-25T04:52:14;101254.34;;;17.21;63.45
17764;BME280;22245;52.832;13.816;2022-07-25T04:55:36;101251.66;;;17.30;63.15
17764;BME280;22245;52.832;13.816;2022-07-25T04:58:59;101249.84;;;17.39;62.87
17764;BME280;22245;52.832;13.816;2022-07-25T05:02:27;101238.25;;;17.46;62.61
17764;BME280;22245;52.832;13.816;2022-07-25T05:05:49;101231.22;;;17.54;62.39
17764;BME280;22245;52.832;13.816;2022-07-25T05:09:11;101228.38;;;17.63;62.44
17764;BME280;22245;52.832;13.816;2022-07-25T05:12:33;101221.31;;;17.71;61.70
17764;BME280;22245;52.832;13.816;2022-07-25T05:15:55;101224.53;;;17.83;61.01
17764;BME280;22245;52.832;13.816;2022-07-25T05:19:18;101222.31;;;17.94;60.25
17764;BME280;22245;52.832;13.816;2022-07-25T05:22:41;101220.34;;;18.05;60.03
17764;BME280;22245;52.832;13.816;2022-07-25T05:26:02;101223.69;;;18.15;60.15
17764;BME280;22245;52.832;13.816;2022-07-25T05:29:24;101216.47;;;18.24;60.16
17764;BME280;22245;52.832;13.816;2022-07-25T05:32:46;101214.56;;;18.33;59.64
17764;BME280;22245;52.832;13.816;2022-07-25T05:36:09;101210.88;;;18.42;59.24
17764;BME280;22245;52.832;13.816;2022-07-25T05:39:31;101206.28;;;18.51;59.30
17764;BME280;22245;52.832;13.816;2022-07-25T05:42:52;101203.59;;;18.59;59.27
17764;BME280;22245;52.832;13.816;2022-07-25T05:46:21;101200.66;;;18.69;59.31
17764;BME280;22245;52.832;13.816;2022-07-25T05:49:44;101202.81;;;18.82;59.34
17764;BME280;22245;52.832;13.816;2022-07-25T05:53:08;101199.06;;;18.91;58.91
17764;BME280;22245;52.832;13.816;2022-07-25T05:56:29;101189.97;;;19.01;59.39
17764;BME280;22245;52.832;13.816;2022-07-25T05:59:51;101178.09;;;19.10;59.47
17764;BME280;22245;52.832;13.816;2022-07-25T06:03:13;101174.31;;;19.19;59.49
17764;BME280;22245;52.832;13.816;2022-07-25T06:06:35;101171.22;;;19.31;59.45
17764;BME280;22245;52.832;13.816;2022-07-25T06:09:58;101162.06;;;19.40;59.35
17764;BME280;22245;52.832;13.816;2022-07-25T06:13:20;101160.63;;;19.52;59.65
17764;BME280;22245;52.832;13.816;2022-07-25T06:16:42;101158.50;;;19.63;59.53
17764;BME280;22245;52.832;13.816;2022-07-25T06:20:05;101166.66;;;19.78;59.51
17764;BME280;22245;52.832;13.816;2022-07-25T06:23:27;101162.56;;;19.90;59.63
17764;BME280;22245;52.832;13.816;2022-07-25T06:26:50;101159.75;;;19.99;59.31
17764;BME280;22245;52.832;13.816;2022-07-25T06:30:13;101155.78;;;20.09;58.72
17764;BME280;22245;52.832;13.816;2022-07-25T06:33:39;101149.25;;;20.19;58.64
17764;BME280;22245;52.832;13.816;2022-07-25T06:37:01;101143.38;;;20.30;58.29
17764;BME280;22245;52.832;13.816;2022-07-25T06:40:23;101139.56;;;20.39;58.47
17764;BME280;22245;52.832;13.816;2022-07-25T06:43:47;101138.25;;;20.50;58.23
17764;BME280;22245;52.832;13.816;2022-07-25T06:47:08;101125.09;;;20.62;58.28
17764;BME280;22245;52.832;13.816;2022-07-25T06:50:32;101121.34;;;20.78;58.07
17764;BME280;22245;52.832;13.816;2022-07-25T06:53:54;101117.78;;;20.93;58.22
17764;BME280;22245;52.832;13.816;2022-07-25T06:57:16;101118.59;;;21.08;57.74
17764;BME280;22245;52.832;13.816;2022-07-25T07:00:39;101111.88;;;21.26;57.92
17764;BME280;22245;52.832;13.816;2022-07-25T07:04:02;101102.25;;;21.45;59.76
17764;BME280;22245;52.832;13.816;2022-07-25T07:07:24;101095.72;;;21.61;57.32
17764;BME280;22245;52.832;13.816;2022-07-25T07:10:46;101095.28;;;21.79;56.85
17764;BME280;22245;52.832;13.816;2022-07-25T07:14:08;101084.13;;;21.96;56.04
17764;BME280;22245;52.832;13.816;2022-07-25T07:17:31;101079.25;;;22.20;50.75
17764;BME280;22245;52.832;13.816;2022-07-25T07:20:52;101072.75;;;22.49;51.39
17764;BME280;22245;52.832;13.816;2022-07-25T07:24:14;101062.19;;;22.68;54.59
17764;BME280;22245;52.832;13.816;2022-07-25T07:27:44;101059.94;;;22.85;51.17
17764;BME280;22245;52.832;13.816;2022-07-25T07:31:05;101058.69;;;23.08;47.46
17764;BME280;22245;52.832;13.816;2022-07-25T07:34:38;101054.19;;;23.35;46.48
17764;BME280;22245;52.832;13.816;2022-07-25T07:37:59;101053.53;;;23.60;45.63
17764;BME280;22245;52.832;13.816;2022-07-25T07:41:21;101044.91;;;23.83;45.37
17764;BME280;22245;52.832;13.816;2022-07-25T07:44:43;101037.78;;;24.03;43.70
17764;BME280;22245;52.832;13.816;2022-07-25T07:48:05;101036.66;;;24.24;43.50
17764;BME280;22245;52.832;13.816;2022-07-25T07:51:28;101034.72;;;24.45;43.31
17764;BME280;22245;52.832;13.816;2022-07-25T07:54:50;101028.34;;;24.64;44.97
17764;BME280;22245;52.832;13.816;2022-07-25T07:58:29;101024.47;;;24.85;42.40
17764;BME280;22245;52.832;13.816;2022-07-25T08:01:51;101021.38;;;25.07;41.72
17764;BME280;22245;52.832;13.816;2022-07-25T08:05:18;101023.31;;;25.25;41.21
17764;BME280;22245;52.832;13.816;2022-07-25T08:08:42;101013.72;;;25.48;41.05
17764;BME280;22245;52.832;13.816;2022-07-25T08:12:04;101016.63;;;25.72;40.42
17764;BME280;22245;52.832;13.816;2022-07-25T08:15:26;101003.47;;;25.88;40.05
17764;BME280;22245;52.832;13.816;2022-07-25T08:18:48;101002.84;;;26.04;39.72
17764;BME280;22245;52.832;13.816;2022-07-25T08:22:10;100988.38;;;26.22;40.04
17764;BME280;22245;52.832;13.816;2022-07-25T08:25:34;100988.56;;;26.39;39.59
17764;BME280;22245;52.832;13.816;2022-07-25T08:28:56;100991.13;;;26.53;38.17
17764;BME280;22245;52.832;13.816;2022-07-25T08:32:45;100982.16;;;26.76;38.80
17764;BME280;22245;52.832;13.816;2022-07-25T08:36:08;100971.19;;;26.95;38.39
17764;BME280;22245;52.832;13.816;2022-07-25T08:39:31;100974.66;;;27.14;37.58
17764;BME280;22245;52.832;13.816;2022-07-25T08:42:55;100971.91;;;27.26;37.36
17764;BME280;22245;52.832;13.816;2022-07-25T08:46:17;100971.19;;;27.42;36.64
17764;BME280;22245;52.832;13.816;2022-07-25T08:49:39;100961.94;;;27.55;36.27
17764;BME280;22245;52.832;13.816;2022-07-25T08:53:01;100957.31;;;27.68;36.43
17764;BME280;22245;52.832;13.816;2022-07-25T08:56:43;100964.06;;;27.77;36.59
17764;BME280;22245;52.832;13.816;2022-07-25T09:00:07;100961.63;;;27.93;36.19
17764;BME280;22245;52.832;13.816;2022-07-25T09:03:31;100954.31;;;28.10;35.95
17764;BME280;22245;52.832;13.816;2022-07-25T09:06:53;100948.00;;;28.22;35.87
17764;BME280;22245;52.832;13.816;2022-07-25T09:10:16;100945.94;;;28.29;35.33
17764;BME280;22245;52.832;13.816;2022-07-25T09:13:38;100941.00;;;28.43;35.83
17764;BME280;22245;52.832;13.816;2022-07-25T09:17:04;100936.03;;;28.57;34.84
17764;BME280;22245;52.832;13.816;2022-07-25T09:20:43;100938.19;;;28.72;34.80
17764;BME280;22245;52.832;13.816;2022-07-25T09:24:10;100928.00;;;28.84;35.09
17764;BME280;22245;52.832;13.816;2022-07-25T09:27:32;100917.47;;;28.93;34.64
17764;BME280;22245;52.832;13.816;2022-07-25T09:30:56;100909.38;;;29.03;34.57
17764;BME280;22245;52.832;13.816;2022-07-25T09:34:36;100911.81;;;29.17;34.04
17764;BME280;22245;52.832;13.816;2022-07-25T09:38:09;100910.28;;;29.26;33.57
17764;BME280;22245;52.832;13.816;2022-07-25T09:41:33;100897.06;;;29.40;33.82
17764;BME280;22245;52.832;13.816;2022-07-25T09:45:05;100901.53;;;29.46;33.75
17764;BME280;22245;52.832;13.816;2022-07-25T09:48:29;100891.50;;;29.57;33.36
17764;BME280;22245;52.832;13.816;2022-07-25T09:51:53;100896.84;;;29.69;33.50
17764;BME280;22245;52.832;13.816;2022-07-25T09:55:15;100884.91;;;29.81;33.59
17764;BME280;22245;52.832;13.816;2022-07-25T09:58:37;100871.53;;;29.89;32.61
17764;BME280;22245;52.832;13.816;2022-07-25T10:02:04;100873.00;;;29.97;33.18
17764;BME280;22245;52.832;13.816;2022-07-25T10:05:33;100870.66;;;30.06;32.71
17764;BME280;22245;52.832;13.816;2022-07-25T10:09:00;100860.28;;;30.13;33.01
17764;BME280;22245;52.832;13.816;2022-07-25T10:12:22;100852.41;;;30.22;32.96
17764;BME280;22245;52.832;13.816;2022-07-25T10:15:47;100853.84;;;30.30;32.65
17764;BME280;22245;52.832;13.816;2022-07-25T10:19:09;100842.91;;;30.35;33.03
17764;BME280;22245;52.832;13.816;2022-07-25T10:22:38;100844.03;;;30.39;33.25
17764;BME280;22245;52.832;13.816;2022-07-25T10:26:17;100833.38;;;30.48;33.28
17764;BME280;22245;52.832;13.816;2022-07-25T10:29:41;100839.75;;;30.54;32.98
17764;BME280;22245;52.832;13.816;2022-07-25T10:33:04;100819.16;;;30.56;32.93
17764;BME280;22245;52.832;13.816;2022-07-25T10:36:40;100817.28;;;30.62;32.56
17764;BME280;22245;52.832;13.816;2022-07-25T10:40:03;100808.56;;;30.70;32.64
17764;BME280;22245;52.832;13.816;2022-07-25T10:43:26;100811.88;;;30.72;32.65
17764;BME280;22245;52.832;13.816;2022-07-25T10:46:48;100790.47;;;30.80;32.68
17764;BME280;22245;52.832;13.816;2022-07-25T10:50:10;100796.56;;;30.87;32.71
17764;BME280;22245;52.832;13.816;2022-07-25T10:53:53;100791.66;;;30.99;32.76
17764;BME280;22245;52.832;13.816;2022-07-25T10:57:15;100784.28;;;31.05;32.18
17764;BME280;22245;52.832;13.816;2022-07-25T11:00:43;100774.69;;;31.08;32.55
17764;BME280;22245;52.832;13.816;2022-07-25T11:04:14;100774.72;;;31.18;32.50
17764;BME280;22245;52.832;13.816;2022-07-25T11:07:36;100780.56;;;31.27;32.26
17764;BME280;22245;52.832;13.816;2022-07-25T11:10:58;100772.88;;;31.34;32.54
17764;BME280;22245;52.832;13.816;2022-07-25T11:14:21;100766.53;;;31.44;32.74
17764;BME280;22245;52.832;13.816;2022-07-25T11:17:50;100757.78;;;31.47;32.61
17764;BME280;22245;52.832;13.816;2022-07-25T11:21:12;100767.69;;;31.58;31.93
17764;BME280;22245;52.832;13.816;2022-07-25T11:24:34;100767.97;;;31.62;31.96
17764;BME280;22245;52.832;13.816;2022-07-25T11:27:58;100757.78;;;31.68;31.65
17764;BME280;22245;52.832;13.816;2022-07-25T11:31:21;100757.78;;;31.73;32.39
17764;BME280;22245;52.832;13.816;2022-07-25T11:34:47;100736.63;;;31.79;31.73
17764;BME280;22245;52.832;13.816;2022-07-25T11:38:12;100725.63;;;31.79;31.88
17764;BME280;22245;52.832;13.816;2022-07-25T11:41:34;100721.22;;;31.83;32.02
17764;BME280;22245;52.832;13.816;2022-07-25T11:44:56;100703.31;;;31.90;32.34
17764;BME280;22245;52.832;13.816;2022-07-25T11:48:18;100703.88;;;31.98;31.70
17764;BME280;22245;52.832;13.816;2022-07-25T11:51:43;100701.66;;;32.00;31.26
17764;BME280;22245;52.832;13.816;2022-07-25T11:55:08;100699.16;;;31.98;31.22
17764;BME280;22245;52.832;13.816;2022-07-25T11:58:30;100701.09;;;32.03;31.78
17764;BME280;22245;52.832;13.816;2022-07-25T12:01:52;100702.75;;;32.04;30.97
17764;BME280;22245;52.832;13.816;2022-07-25T12:05:17;100697.22;;;32.09;30.14
17764;BME280;22245;52.832;13.816;2022-07-25T12:08:41;100683.44;;;32.14;30.53
17764;BME280;22245;52.832;13.816;2022-07-25T12:12:04;100690.06;;;32.13;30.67
17764;BME280;22245;52.832;13.816;2022-07-25T12:15:28;100684.56;;;32.24;30.31
17764;BME280;22245;52.832;13.816;2022-07-25T12:18:50;100683.72;;;32.33;30.30
17764;BME280;22245;52.832;13.816;2022-07-25T12:22:12;100664.13;;;32.40;30.81
17764;BME280;22245;52.832;13.816;2022-07-25T12:25:37;100668.53;;;32.41;31.63
17764;BME280;22245;52.832;13.816;2022-07-25T12:28:59;100663.56;;;32.48;30.75
17764;BME280;22245;52.832;13.816;2022-07-25T12:32:21;100666.84;;;32.51;29.08
17764;BME280;22245;52.832;13.816;2022-07-25T12:35:45;100647.81;;;32.54;29.37
17764;BME280;22245;52.832;13.816;2022-07-25T12:39:07;100641.22;;;32.50;29.47
17764;BME280;22245;52.832;13.816;2022-07-25T12:42:31;100628.78;;;32.58;29.79
17764;BME280;22245;52.832;13.816;2022-07-25T12:45:53;100640.59;;;32.69;29.60
17764;BME280;22245;52.832;13.816;2022-07-25T12:49:15;100633.13;;;32.74;29.47
17764;BME280;22245;52.832;13.816;2022-07-25T12:52:37;100622.59;;;32.82;29.38
17764;BME280;22245;52.832;13.816;2022-07-25T12:55:59;100613.22;;;32.88;28.51
17764;BME280;22245;52.832;13.816;2022-07-25T12:59:22;100615.94;;;32.98;28.82
17764;BME280;22245;52.832;13.816;2022-07-25T13:02:43;100622.75;;;33.06;28.19
17764;BME280;22245;52.832;13.816;2022-07-25T13:06:07;100607.53;;;33.14;28.53
17764;BME280;22245;52.832;13.816;2022-07-25T13:09:29;100614.91;;;33.24;28.22
17764;BME280;22245;52.832;13.816;2022-07-25T13:12:51;100608.25;;;33.30;26.91
17764;BME280;22245;52.832;13.816;2022-07-25T13:16:14;100617.09;;;33.27;27.41
17764;BME280;22245;52.832;13.816;2022-07-25T13:19:36;100603.50;;;33.36;27.47
17764;BME280;22245;52.832;13.816;2022-07-25T13:22:57;100597.69;;;33.37;27.44
17764;BME280;22245;52.832;13.816;2022-07-25T13:26:19;100599.06;;;33.40;27.95
17764;BME280;22245;52.832;13.816;2022-07-25T13:29:41;100597.94;;;33.41;27.94
17764;BME280;22245;52.832;13.816;2022-07-25T13:33:05;100597.09;;;33.45;27.74
17764;BME280;22245;52.832;13.816;2022-07-25T13:36:30;100579.72;;;33.45;26.84
17764;BME280;22245;52.832;13.816;2022-07-25T13:39:52;100572.25;;;33.45;28.78
17764;BME280;22245;52.832;13.816;2022-07-25T13:43:14;100574.44;;;33.48;28.39
17764;BME280;22245;52.832;13.816;2022-07-25T13:46:36;100569.97;;;33.53;27.56
17764;BME280;22245;52.832;13.816;2022-07-25T13:49:59;100562.00;;;33.51;27.58
17764;BME280;22245;52.832;13.816;2022-07-25T13:53:21;100559.75;;;33.53;28.50
17764;BME280;22245;52.832;13.816;2022-07-25T13:56:49;100560.59;;;33.54;27.32
17764;BME280;22245;52.832;13.816;2022-07-25T14:00:11;100565.28;;;33.53;28.37
17764;BME280;22245;52.832;13.816;2022-07-25T14:03:33;100548.72;;;33.53;27.62
17764;BME280;22245;52.832;13.816;2022-07-25T14:06:58;100542.66;;;33.51;28.13
17764;BME280;22245;52.832;13.816;2022-07-25T14:10:20;100532.16;;;33.53;27.63
17764;BME280;22245;52.832;13.816;2022-07-25T14:13:42;100524.34;;;33.60;28.14
17764;BME280;22245;52.832;13.816;2022-07-25T14:17:04;100523.66;;;33.74;28.16
17764;BME280;22245;52.832;13.816;2022-07-25T14:20:26;100516.97;;;33.80;28.61
17764;BME280;22245;52.832;13.816;2022-07-25T14:23:50;100506.91;;;33.89;26.65
17764;BME280;22245;52.832;13.816;2022-07-25T14:27:12;100496.06;;;33.98;27.24
17764;BME280;22245;52.832;13.816;2022-07-25T14:30:33;100492.91;;;34.05;26.32
17764;BME280;22245;52.832;13.816;2022-07-25T14:33:55;100511.63;;;34.13;27.20
17764;BME280;22245;52.832;13.816;2022-07-25T14:37:18;100498.94;;;34.12;26.79
17764;BME280;22245;52.832;13.816;2022-07-25T14:40:41;100494.44;;;34.16;26.88
17764;BME280;22245;52.832;13.816;2022-07-25T14:44:04;100493.78;;;34.25;26.46
17764;BME280;22245;52.832;13.816;2022-07-25T14:47:27;100493.94;;;34.33;27.09
17764;BME280;22245;52.832;13.816;2022-07-25T14:50:49;100492.91;;;34.29;26.32
17764;BME280;22245;52.832;13.816;2022-07-25T14:54:11;100503.13;;;34.29;26.05
17764;BME280;22245;52.832;13.816;2022-07-25T14:57:34;100484.06;;;34.27;25.50
17764;BME280;22245;52.832;13.816;2022-07-25T15:00:56;100473.31;;;34.26;25.73
17764;BME280;22245;52.832;13.816;2022-07-25T15:04:18;100470.03;;;34.24;25.46
17764;BME280;22245;52.832;13.816;2022-07-25T15:07:41;100469.59;;;34.16;25.21
17764;BME280;22245;52.832;13.816;2022-07-25T15:11:03;100469.09;;;34.09;25.54
17764;BME280;22245;52.832;13.816;2022-07-25T15:14:26;100450.88;;;34.08;25.71
17764;BME280;22245;52.832;13.816;2022-07-25T15:17:48;100442.59;;;34.08;26.25
17764;BME280;22245;52.832;13.816;2022-07-25T15:21:10;100433.25;;;34.04;25.51
17764;BME280;22245;52.832;13.816;2022-07-25T15:24:32;100428.84;;;34.03;25.84
17764;BME280;22245;52.832;13.816;2022-07-25T15:28:14;100422.72;;;34.06;26.25
17764;BME280;22245;52.832;13.816;2022-07-25T15:31:37;100411.47;;;34.02;25.87
17764;BME280;22245;52.832;13.816;2022-07-25T15:34:58;100402.66;;;34.00;26.28
17764;BME280;22245;52.832;13.816;2022-07-25T15:38:20;100404.91;;;33.98;26.37
17764;BME280;22245;52.832;13.816;2022-07-25T15:41:42;100401.34;;;33.92;27.02
17764;BME280;22245;52.832;13.816;2022-07-25T15:45:05;100398.91;;;33.91;26.91
17764;BME280;22245;52.832;13.816;2022-07-25T15:48:48;100395.91;;;33.87;28.09
17764;BME280;22245;52.832;13.816;2022-07-25T15:52:10;100382.09;;;33.87;28.25
17764;BME280;22245;52.832;13.816;2022-07-25T15:55:32;100382.56;;;33.95;27.21
17764;BME280;22245;52.832;13.816;2022-07-25T15:58:54;100369.72;;;34.04;29.11
17764;BME280;22245;52.832;13.816;2022-07-25T16:02:16;100359.88;;;33.98;28.62
17764;BME280;22245;52.832;13.816;2022-07-25T16:05:40;100360.19;;;34.15;28.33
17764;BME280;22245;52.832;13.816;2022-07-25T16:09:02;100355.69;;;34.19;28.33
17764;BME280;22245;52.832;13.816;2022-07-25T16:12:24;100343.94;;;34.28;27.65
17764;BME280;22245;52.832;13.816;2022-07-25T16:15:48;100345.41;;;34.39;27.08
17764;BME280;22245;52.832;13.816;2022-07-25T16:19:10;100345.66;;;34.24;27.78
17764;BME280;22245;52.832;13.816;2022-07-25T16:22:34;100338.66;;;34.12;27.38
17764;BME280;22245;52.832;13.816;2022-07-25T16:25:56;100328.69;;;33.97;27.46
17764;BME280;22245;52.832;13.816;2022-07-25T16:29:18;100327.00;;;33.77;27.95
17764;BME280;22245;52.832;13.816;2022-07-25T16:32:40;100331.16;;;33.55;27.75
17764;BME280;22245;52.832;13.816;2022-07-25T16:36:02;100333.81;;;33.41;28.40
17764;BME280;22245;52.832;13.816;2022-07-25T16:39:25;100326.59;;;33.21;28.26
17764;BME280;22245;52.832;13.816;2022-07-25T16:42:47;100330.00;;;33.13;28.25
17764;BME280;22245;52.832;13.816;2022-07-25T16:46:09;100339.72;;;33.05;28.13
17764;BME280;22245;52.832;13.816;2022-07-25T16:49:31;100343.97;;;32.97;28.16
17764;BME280;22245;52.832;13.816;2022-07-25T16:52:53;100345.13;;;32.91;28.57
17764;BME280;22245;52.832;13.816;2022-07-25T16:56:16;100348.78;;;32.81;28.47
17764;BME280;22245;52.832;13.816;2022-07-25T16:59:38;100336.25;;;32.65;29.29
17764;BME280;22245;52.832;13.816;2022-07-25T17:03:00;100333.13;;;32.47;29.42
17764;BME280;22245;52.832;13.816;2022-07-25T17:06:22;100329.09;;;32.29;28.84
17764;BME280;22245;52.832;13.816;2022-07-25T17:09:44;100344.03;;;32.23;28.90
17764;BME280;22245;52.832;13.816;2022-07-25T17:13:07;100399.72;;;32.14;29.09
17764;BME280;22245;52.832;13.816;2022-07-25T17:16:29;100410.41;;;31.66;31.42
17764;BME280;22245;52.832;13.816;2022-07-25T17:19:51;100417.69;;;31.15;33.55
17764;BME280;22245;52.832;13.816;2022-07-25T17:23:19;100446.84;;;30.74;34.79
17764;BME280;22245;52.832;13.816;2022-07-25T17:26:41;100499.19;;;30.21;37.08
17764;BME280;22245;52.832;13.816;2022-07-25T17:30:05;100515.38;;;29.69;44.40